createdAt,value
2023-05-24T00:00:40.715Z,2.67
2023-05-24T00:04:40.637Z,3.47
2023-05-24T00:08:40.453Z,2.42
2023-05-24T00:12:40.477Z,3.17
2023-05-24T00:16:41.234Z,4.03
2023-05-24T00:20:40.801Z,2.83
2023-05-24T00:24:40.553Z,3.62
2023-05-24T00:28:40.692Z,3.72
2023-05-24T00:32:40.459Z,4.57
2023-05-24T00:36:40.447Z,4.12
2023-05-24T00:40:40.654Z,4.1
2023-05-24T00:44:40.489Z,2.83
2023-05-24T00:48:40.441Z,3.5
2023-05-24T00:52:40.406Z,4.03
2023-05-24T00:56:40.385Z,4.3
2023-05-24T01:00:40.725Z,4.45
2023-05-24T01:04:40.245Z,3.78
2023-05-24T01:08:40.574Z,4.47
2023-05-24T01:12:40.585Z,3.9
2023-05-24T01:16:40.669Z,3.5
2023-05-24T01:20:40.960Z,3.83
2023-05-24T01:24:40.515Z,4.37
2023-05-24T01:28:40.345Z,4.05
2023-05-24T01:32:40.462Z,3.53
2023-05-24T01:36:40.610Z,4.03
2023-05-24T01:40:40.678Z,4.6
2023-05-24T01:44:40.539Z,3.55
2023-05-24T01:48:41.202Z,3.65
2023-05-24T01:52:40.460Z,5.32
2023-05-24T01:56:40.503Z,2.03
2023-05-24T02:00:40.441Z,3.6
2023-05-24T02:04:40.584Z,3.5
2023-05-24T02:08:41.065Z,4.4
2023-05-24T02:12:40.628Z,2.45
2023-05-24T02:16:40.423Z,3.37
2023-05-24T02:20:40.723Z,3.1
2023-05-24T02:24:40.573Z,3.05
2023-05-24T02:28:40.547Z,3.6
2023-05-24T02:32:40.820Z,4.05
2023-05-24T02:36:40.003Z,3.03
2023-05-24T02:40:41.529Z,2.72
2023-05-24T02:44:40.066Z,4.05
2023-05-24T02:48:41.173Z,4.65
2023-05-24T02:52:40.498Z,2.45
2023-05-24T02:56:40.305Z,4.15
2023-05-24T03:00:40.988Z,3.4
2023-05-24T03:04:40.403Z,3.7
2023-05-24T03:08:40.610Z,3.5
2023-05-24T03:12:40.144Z,4.25
2023-05-24T03:16:40.492Z,3.3
2023-05-24T03:20:41.557Z,3.6
2023-05-24T03:24:40.524Z,3.92
2023-05-24T03:28:40.492Z,3.37
2023-05-24T03:32:40.660Z,2.78
2023-05-24T03:36:39.373Z,2.25
2023-05-24T03:40:40.878Z,2.3
2023-05-24T03:44:40.267Z,3.12
2023-05-24T03:48:40.494Z,2.9
2023-05-24T03:52:40.649Z,6.05
2023-05-24T03:56:40.456Z,2.95
2023-05-24T04:00:40.708Z,2.78
2023-05-24T04:04:40.682Z,4.78
2023-05-24T04:08:40.410Z,4.68
2023-05-24T04:12:40.543Z,3.03
2023-05-24T04:16:40.480Z,4.22
2023-05-24T04:20:41.012Z,2.8
2023-05-24T04:24:40.416Z,2.87
2023-05-24T04:28:40.477Z,2.87
2023-05-24T04:32:40.392Z,2.53
2023-05-24T04:36:40.680Z,2.65
2023-05-24T04:40:40.843Z,4.05
2023-05-24T04:44:40.604Z,3.2
2023-05-24T04:48:40.599Z,2.83
2023-05-24T04:52:40.538Z,2.55
2023-05-24T04:56:40.404Z,2.92
2023-05-24T05:00:41.677Z,5.68
2023-05-24T05:04:40.520Z,2.35
2023-05-24T05:08:40.577Z,2.9
2023-05-24T05:12:40.467Z,4.72
2023-05-24T05:16:40.617Z,2.6
2023-05-24T05:20:41.149Z,3.12
2023-05-24T05:24:40.465Z,2.22
2023-05-24T05:28:40.632Z,3.8
2023-05-24T05:32:40.490Z,2.05
2023-05-24T05:36:40.999Z,2.72
2023-05-24T05:40:40.429Z,2.67
2023-05-24T05:44:40.492Z,3.67
2023-05-24T05:48:40.815Z,2.45
2023-05-24T05:52:40.467Z,2.25
2023-05-24T05:56:40.490Z,5.18
2023-05-24T06:00:40.807Z,3.3
2023-05-24T06:04:40.638Z,2.05
2023-05-24T06:08:40.357Z,3.55
2023-05-24T06:12:40.457Z,2.15
2023-05-24T06:16:39.413Z,2.37
2023-05-24T06:20:41.136Z,3.83
2023-05-24T06:24:40.397Z,3.15
2023-05-24T06:28:40.555Z,2.75
2023-05-24T06:32:40.325Z,3.5
2023-05-24T06:36:40.538Z,2.7
2023-05-24T06:40:40.892Z,2.5
2023-05-24T06:44:40.397Z,1.83
2023-05-24T06:48:40.679Z,2.97
2023-05-24T06:52:40.498Z,2.62
2023-05-24T06:56:40.603Z,3.5
2023-05-24T07:00:41.205Z,3.25
2023-05-24T07:04:40.551Z,2.37
2023-05-24T07:08:40.317Z,3.28
2023-05-24T07:12:40.471Z,3.58
2023-05-24T07:16:40.609Z,2.37
2023-05-24T07:20:40.667Z,3.47
2023-05-24T07:24:40.614Z,3.5
2023-05-24T07:28:40.519Z,3.17
2023-05-24T07:32:40.669Z,3.78
2023-05-24T07:36:39.271Z,3.33
2023-05-24T07:40:40.882Z,2.92
2023-05-24T07:44:40.501Z,4.43
2023-05-24T07:48:40.881Z,3
2023-05-24T07:52:40.565Z,2.2
2023-05-24T07:56:39.320Z,2.6
2023-05-24T08:00:40.604Z,4.03
2023-05-24T08:04:40.618Z,2.83
2023-05-24T08:08:40.743Z,3.3
2023-05-24T08:12:39.633Z,3.1
2023-05-24T08:16:40.400Z,3.33
2023-05-24T08:20:40.617Z,2.47
2023-05-24T08:24:40.489Z,3.22
2023-05-24T08:28:40.666Z,3.83
2023-05-24T08:32:40.680Z,2.55
2023-05-24T08:36:40.377Z,2.45
2023-05-24T08:40:40.581Z,2.35
2023-05-24T08:44:40.988Z,3.05
2023-05-24T08:48:40.715Z,3.42
2023-05-24T08:52:40.416Z,2.45
2023-05-24T08:56:41.229Z,4.22
2023-05-24T09:00:40.858Z,3.25
2023-05-24T09:04:40.264Z,1.9
2023-05-24T09:08:43.035Z,2.75
2023-05-24T09:12:40.346Z,2.37
2023-05-24T09:16:41.173Z,2.22
2023-05-24T09:20:40.503Z,2.35
2023-05-24T09:24:41.188Z,3.33
2023-05-24T09:28:40.653Z,2.42
2023-05-24T09:32:40.738Z,2.75
2023-05-24T09:36:40.498Z,2.3
2023-05-24T09:40:40.837Z,2.65
2023-05-24T09:44:40.508Z,2.22
2023-05-24T09:48:40.544Z,4.03
2023-05-24T09:52:40.503Z,2.4
2023-05-24T09:56:40.310Z,2.7
2023-05-24T10:00:41.950Z,2.12
2023-05-24T10:04:40.708Z,2.42
2023-05-24T10:08:40.481Z,2.15
2023-05-24T10:12:40.489Z,4.05
2023-05-24T10:16:40.508Z,2.17
2023-05-24T10:20:40.917Z,2.08
2023-05-24T10:24:40.608Z,2.8
2023-05-24T10:28:40.482Z,2.37
2023-05-24T10:32:40.914Z,2.4
2023-05-24T10:36:40.930Z,3.92
2023-05-24T10:40:41.128Z,2.17
2023-05-24T10:44:40.443Z,3.25
2023-05-24T10:48:40.346Z,2.92
2023-05-24T10:52:40.475Z,2.95
2023-05-24T10:56:40.329Z,2.95
2023-05-24T11:00:40.785Z,3.53
2023-05-24T11:04:40.562Z,3.4
2023-05-24T11:08:40.527Z,3.5
2023-05-24T11:12:40.428Z,2.6
2023-05-24T11:16:40.804Z,3.15
2023-05-24T11:20:41.146Z,3.58
2023-05-24T11:24:40.677Z,2.55
2023-05-24T11:28:40.552Z,3.9
2023-05-24T11:32:40.548Z,2.42
2023-05-24T11:36:39.756Z,2.5
2023-05-24T11:40:40.401Z,2.83
2023-05-24T11:44:40.452Z,2.7
2023-05-24T11:48:42.198Z,2.6
2023-05-24T11:52:40.416Z,3.1
2023-05-24T11:56:40.509Z,3.08
2023-05-24T12:00:40.736Z,3.17
2023-05-24T12:04:40.809Z,3.87
2023-05-24T12:08:40.825Z,2.9
2023-05-24T12:12:45.645Z,2.42
2023-05-24T12:16:40.554Z,3.28
2023-05-24T12:20:41.477Z,3
2023-05-24T12:24:40.592Z,4.65
2023-05-24T12:28:41.036Z,2.72
2023-05-24T12:32:39.822Z,2.3
2023-05-24T12:36:40.449Z,2.42
2023-05-24T12:40:40.734Z,3.37
2023-05-24T12:44:40.833Z,3.05
2023-05-24T12:48:40.726Z,2.4
2023-05-24T12:52:42.831Z,3.53
2023-05-24T12:56:40.481Z,3.08
2023-05-24T13:00:41.034Z,2.55
2023-05-24T13:04:40.485Z,3.15
2023-05-24T13:08:41.104Z,2.4
2023-05-24T13:12:40.443Z,3.58
2023-05-24T13:16:40.392Z,2.05
2023-05-24T13:20:40.840Z,2.72
2023-05-24T13:24:40.548Z,2.55
2023-05-24T13:28:53.285Z,2.6
2023-05-24T13:32:41.354Z,3.05
2023-05-24T13:36:40.715Z,2.33
2023-05-24T13:40:41.923Z,2.3
2023-05-24T13:44:40.464Z,2.53
2023-05-24T13:48:40.798Z,2.03
2023-05-24T13:52:40.791Z,2.12
2023-05-24T13:56:40.436Z,2.6
2023-05-24T14:00:39.965Z,2.2
2023-05-24T14:04:39.852Z,2.53
2023-05-24T14:08:40.391Z,3.33
2023-05-24T14:12:40.670Z,2.8
2023-05-24T14:16:40.767Z,2.15
2023-05-24T14:20:40.940Z,2.72
2023-05-24T14:24:40.482Z,2.65
2023-05-24T14:28:40.351Z,2.45
2023-05-24T14:32:41.061Z,3.62
2023-05-24T14:36:40.440Z,2.5
2023-05-24T14:40:41.289Z,2.55
2023-05-24T14:44:40.118Z,2.85
2023-05-24T14:48:39.419Z,2.53
2023-05-24T14:52:40.635Z,2.9
2023-05-24T14:56:40.519Z,2.25
2023-05-24T15:00:40.727Z,2.35
2023-05-24T15:04:40.513Z,2.4
2023-05-24T15:08:40.535Z,2.62
2023-05-24T15:12:40.482Z,2.8
2023-05-24T15:16:40.683Z,3.35
2023-05-24T15:20:41.497Z,2.9
2023-05-24T15:24:40.456Z,3
2023-05-24T15:28:40.572Z,2.55
2023-05-24T15:32:40.544Z,3.33
2023-05-24T15:36:40.539Z,2.4
2023-05-24T15:40:40.759Z,2.53
2023-05-24T15:44:40.403Z,3.08
2023-05-24T15:48:40.549Z,2.95
2023-05-24T15:52:40.711Z,2.35
2023-05-24T15:56:41.240Z,2.35
2023-05-24T16:00:40.212Z,2.83
2023-05-24T16:04:41.250Z,2.47
2023-05-24T16:08:40.514Z,2.55
2023-05-24T16:12:40.568Z,2.58
2023-05-24T16:16:40.626Z,2.12
2023-05-24T16:20:40.515Z,2.47
2023-05-24T16:24:40.615Z,2.67
2023-05-24T16:28:40.440Z,2.4
2023-05-24T16:32:40.773Z,2.72
2023-05-24T16:36:41.235Z,2.85
2023-05-24T16:40:40.348Z,2.22
2023-05-24T16:44:40.391Z,2.47
2023-05-24T16:48:40.591Z,1.95
2023-05-24T16:52:40.409Z,2.65
2023-05-24T16:56:40.596Z,2.78
2023-05-24T17:00:39.455Z,2.62
2023-05-24T17:04:40.535Z,2
2023-05-24T17:08:40.546Z,2.9
2023-05-24T17:12:40.488Z,2.1
2023-05-24T17:16:40.684Z,2.92
2023-05-24T17:20:40.437Z,2.6
2023-05-24T17:24:39.331Z,2.83
2023-05-24T17:28:40.640Z,2.5
2023-05-24T17:32:40.304Z,2.3
2023-05-24T17:36:40.503Z,2.17
2023-05-24T17:40:40.497Z,2.35
2023-05-24T17:44:40.858Z,2.62
2023-05-24T17:48:40.403Z,2.15
2023-05-24T17:52:40.954Z,2.95
2023-05-24T17:56:40.539Z,4.07
2023-05-24T18:00:40.610Z,2.65
2023-05-24T18:04:40.504Z,3.65
2023-05-24T18:08:40.632Z,2.58
2023-05-24T18:12:40.589Z,2.62
2023-05-24T18:16:41.200Z,2.97
2023-05-24T18:20:40.023Z,2.6
2023-05-24T18:24:41.121Z,2.5
2023-05-24T18:28:40.431Z,2.3
2023-05-24T18:32:52.033Z,2.78
2023-05-24T18:36:40.486Z,2.47
2023-05-24T18:40:40.121Z,3.03
2023-05-24T18:44:39.594Z,2.5
2023-05-24T18:48:40.565Z,2.5
2023-05-24T18:52:40.546Z,3.28
2023-05-24T18:56:40.490Z,2.95
2023-05-24T19:00:41.388Z,3.15
2023-05-24T19:04:40.543Z,3.15
2023-05-24T19:08:40.534Z,2.25
2023-05-24T19:12:40.441Z,2.87
2023-05-24T19:16:40.317Z,2.78
2023-05-24T19:20:40.638Z,2.8
2023-05-24T19:24:40.812Z,2.8
2023-05-24T19:28:40.396Z,3.17
2023-05-24T19:32:40.418Z,3.35
2023-05-24T19:36:40.394Z,3.4
2023-05-24T19:40:40.528Z,3.2
2023-05-24T19:44:40.311Z,3.35
2023-05-24T19:48:41.271Z,3.55
2023-05-24T19:52:40.436Z,3.47
2023-05-24T19:56:40.436Z,3.65
2023-05-24T20:00:40.844Z,3.67
2023-05-24T20:04:40.394Z,4.75
2023-05-24T20:08:40.436Z,5.12
2023-05-24T20:12:40.428Z,4.47
2023-05-24T20:16:40.484Z,4.53
2023-05-24T20:20:40.945Z,4.4
2023-05-24T20:24:40.432Z,4.5
2023-05-24T20:28:40.457Z,4.3
2023-05-24T20:32:40.654Z,4.43
2023-05-24T20:36:43.566Z,4.72
2023-05-24T20:40:40.462Z,4.7
2023-05-24T20:44:40.774Z,5.62
2023-05-24T20:48:40.908Z,5.28
2023-05-24T20:52:40.514Z,6.75
2023-05-24T20:56:40.351Z,4.9
2023-05-24T21:00:41.727Z,5.62
2023-05-24T21:04:40.030Z,5.12
2023-05-24T21:08:40.845Z,5.03
2023-05-24T21:12:40.250Z,6.65
2023-05-24T21:16:40.475Z,6.03
2023-05-24T21:20:40.759Z,5.55
2023-05-24T21:24:41.307Z,6.4
2023-05-24T21:28:41.239Z,6.05
2023-05-24T21:32:40.492Z,6.35
2023-05-24T21:36:40.521Z,6.97
2023-05-24T21:40:40.354Z,6.55
2023-05-24T21:44:40.404Z,5.9
2023-05-24T21:48:40.489Z,5.82
2023-05-24T21:52:40.669Z,5.68
2023-05-24T21:56:40.563Z,6.72
2023-05-24T22:00:39.731Z,6
2023-05-24T22:04:41.096Z,6.12
2023-05-24T22:08:40.529Z,7.43
2023-05-24T22:12:40.543Z,7.1
2023-05-24T22:16:40.547Z,10
2023-05-24T22:20:40.486Z,6.65
2023-05-24T22:24:40.821Z,6.7
2023-05-24T22:28:40.411Z,6.25
2023-05-24T22:32:40.565Z,6.47
2023-05-24T22:36:40.381Z,7.12
2023-05-24T22:40:40.497Z,6.1
2023-05-24T22:44:40.501Z,6
2023-05-24T22:48:40.650Z,6.9
2023-05-24T22:52:40.265Z,7.37
2023-05-24T22:56:40.338Z,6.85
2023-05-24T23:00:40.860Z,6.78
2023-05-24T23:04:41.110Z,6.8
2023-05-24T23:08:40.527Z,6.95
2023-05-24T23:12:40.531Z,5.8
2023-05-24T23:16:40.515Z,5.95
2023-05-24T23:20:40.613Z,6.12
2023-05-24T23:24:40.433Z,6.57
2023-05-24T23:28:40.520Z,6.3
2023-05-24T23:32:40.791Z,6.07
2023-05-24T23:36:40.587Z,6.07
2023-05-24T23:40:40.517Z,8.85
2023-05-24T23:44:40.512Z,6.22
2023-05-24T23:48:40.666Z,6.68
2023-05-24T23:52:40.500Z,5.8
2023-05-24T23:56:40.591Z,6.3
